createdAt,value
2019-05-03T00:01:52.784Z,17.47
2019-05-03T00:06:57.289Z,16.63
2019-05-03T00:12:01.955Z,18.17
2019-05-03T00:17:07.511Z,18.67
2019-05-03T00:22:12.383Z,19.67
2019-05-03T00:27:16.999Z,19.87
2019-05-03T00:32:23.088Z,21.73
2019-05-03T00:37:29.084Z,19.07
2019-05-03T00:42:33.487Z,22.75
2019-05-03T00:47:37.874Z,23.90
2019-05-03T00:52:42.409Z,20.37
2019-05-03T00:57:46.702Z,22.43
2019-05-03T01:02:51.756Z,23.70
2019-05-03T01:07:56.575Z,20.93
2019-05-03T01:13:01.655Z,22.07
2019-05-03T01:18:07.792Z,23.10
2019-05-03T01:23:12.474Z,22.67
2019-05-03T01:28:17.912Z,21.10
2019-05-03T01:33:22.719Z,20.77
2019-05-03T01:38:27.224Z,20.87
2019-05-03T01:43:31.895Z,20.30
2019-05-03T01:48:37.971Z,19.50
2019-05-03T01:53:42.345Z,19.67
2019-05-03T01:58:46.745Z,20.50
2019-05-03T02:04:09.250Z,20.23
2019-05-03T02:09:44.198Z,19.50
2019-05-03T02:14:48.549Z,18.73
2019-05-03T02:19:52.922Z,20.10
2019-05-03T02:24:57.375Z,16.67
2019-05-03T02:30:03.094Z,18.10
2019-05-03T02:35:08.979Z,16.83
2019-05-03T02:40:13.953Z,15.93
2019-05-03T02:45:20.224Z,12.80
2019-05-03T02:50:26.033Z,11.27
2019-05-03T02:55:30.519Z,7.33
2019-05-03T03:01:00.405Z,5.87
2019-05-03T03:06:07.008Z,8.73
2019-05-03T03:11:11.550Z,6.77
2019-05-03T03:16:20.492Z,5.83
2019-05-03T03:21:26.040Z,6.93
2019-05-03T03:26:39.331Z,6.50
2019-05-03T03:31:58.538Z,5.23
2019-05-03T03:37:06.467Z,6.43
2019-05-03T03:42:10.395Z,5.50
2019-05-03T03:47:16.603Z,3.90
2019-05-03T03:52:25.306Z,4.17
2019-05-03T03:57:29.354Z,4.03
2019-05-03T04:02:35.466Z,5.33
2019-05-03T04:07:40.059Z,4.00
2019-05-03T04:12:45.837Z,3.33
2019-05-03T04:17:51.891Z,5.00
2019-05-03T04:22:56.432Z,3.47
2019-05-03T04:28:00.844Z,3.07
2019-05-03T04:33:06.164Z,3.67
2019-05-03T04:38:11.776Z,4.70
2019-05-03T04:43:16.691Z,3.33
2019-05-03T04:48:21.153Z,3.87
2019-05-03T04:53:26.099Z,5.33
2019-05-03T04:58:30.501Z,3.83
2019-05-03T05:03:36.201Z,5.20
2019-05-03T05:08:40.850Z,5.33
2019-05-03T05:13:45.717Z,5.77
2019-05-03T05:18:51.970Z,4.93
2019-05-03T05:23:58.032Z,4.40
2019-05-03T05:29:14.616Z,6.03
2019-05-03T05:34:19.329Z,6.43
2019-05-03T05:39:24.464Z,4.00
2019-05-03T05:44:29.037Z,3.33
2019-05-03T05:49:40.931Z,7.77
2019-05-03T05:54:46.938Z,7.20
2019-05-03T05:59:59.937Z,6.17
2019-05-03T06:05:06.131Z,5.13
2019-05-03T06:10:18.488Z,5.70
2019-05-03T06:15:42.400Z,7.23
2019-05-03T06:21:04.626Z,6.10
2019-05-03T06:26:15.649Z,4.70
2019-05-03T06:31:27.787Z,7.10
2019-05-03T06:36:32.168Z,8.57
2019-05-03T06:41:37.656Z,6.17
2019-05-03T06:46:46.401Z,5.13
2019-05-03T06:51:51.007Z,5.90
2019-05-03T06:56:55.607Z,7.67
2019-05-03T07:02:07.889Z,4.77
2019-05-03T07:07:16.453Z,3.40
2019-05-03T07:12:20.834Z,4.87
2019-05-03T07:17:25.264Z,3.63
2019-05-03T07:22:29.614Z,3.77
2019-05-03T07:27:34.956Z,4.00
2019-05-03T07:32:41.113Z,4.70
2019-05-03T07:37:45.558Z,4.57
2019-05-03T07:42:49.966Z,6.03
2019-05-03T07:47:55.816Z,8.97
2019-05-03T07:53:01.420Z,6.03
2019-05-03T07:58:10.425Z,5.43
2019-05-03T08:03:15.507Z,5.63
2019-05-03T08:08:19.985Z,4.33
2019-05-03T08:13:25.289Z,5.93
2019-05-03T08:18:29.972Z,3.70
2019-05-03T08:23:35.256Z,3.60
2019-05-03T08:28:41.099Z,3.00
2019-05-03T08:33:49.790Z,4.27
2019-05-03T08:38:56.304Z,6.00
2019-05-03T08:44:00.405Z,4.23
2019-05-03T08:49:05.287Z,5.17
2019-05-03T08:54:09.748Z,4.27
2019-05-03T08:59:26.768Z,4.67
2019-05-03T09:04:33.518Z,6.50
2019-05-03T09:09:27.908Z,4.00
2019-05-03T09:14:48.476Z,9.07
2019-05-03T09:19:54.733Z,8.80
2019-05-03T09:24:58.711Z,4.43
2019-05-03T09:30:05.069Z,8.33
2019-05-03T09:35:12.391Z,4.80
2019-05-03T09:40:16.849Z,8.47
2019-05-03T09:45:21.287Z,5.07
2019-05-03T09:50:25.823Z,5.87
2019-05-03T09:55:40.968Z,4.43
2019-05-03T10:00:45.942Z,3.67
2019-05-03T10:05:50.309Z,4.10
2019-05-03T10:11:15.539Z,7.43
2019-05-03T10:16:20.484Z,5.33
2019-05-03T10:21:26.541Z,4.67
2019-05-03T10:26:30.888Z,6.07
2019-05-03T10:31:54.569Z,6.07
2019-05-03T10:36:59.089Z,5.40
2019-05-03T10:42:04.771Z,4.87
2019-05-03T10:47:09.360Z,4.50
2019-05-03T10:52:15.039Z,5.93
2019-05-03T10:57:24.821Z,7.27
2019-05-03T11:02:30.946Z,7.27
2019-05-03T11:07:35.316Z,4.47
2019-05-03T11:12:39.678Z,4.43
2019-05-03T11:17:45.486Z,5.60
2019-05-03T11:22:50.009Z,8.07
2019-05-03T11:27:56.211Z,6.27
2019-05-03T11:33:02.234Z,5.03
2019-05-03T11:38:15.522Z,7.63
2019-05-03T11:43:21.995Z,7.20
2019-05-03T11:48:26.625Z,7.73
2019-05-03T11:53:31.081Z,5.83
2019-05-03T11:58:35.438Z,4.63
2019-05-03T12:03:41.448Z,4.27
2019-05-03T12:08:45.781Z,6.10
2019-05-03T12:14:02.389Z,4.37
2019-05-03T12:19:13.256Z,4.60
2019-05-03T12:24:07.214Z,9.70
2019-05-03T12:29:11.982Z,5.33
2019-05-03T12:34:16.382Z,5.03
2019-05-03T12:39:26.748Z,7.27
2019-05-03T12:44:26.969Z,4.80
2019-05-03T12:49:31.327Z,5.53
2019-05-03T12:54:36.649Z,3.10
2019-05-03T12:59:51.249Z,4.17
2019-05-03T13:04:55.620Z,6.83
2019-05-03T13:10:00.017Z,4.13
2019-05-03T13:15:08.498Z,3.57
2019-05-03T13:20:14.996Z,3.90
2019-05-03T13:25:19.402Z,3.50
2019-05-03T13:30:25.068Z,4.07
2019-05-03T13:35:29.780Z,3.77
2019-05-03T13:40:35.938Z,5.63
2019-05-03T13:45:40.525Z,5.90
2019-05-03T13:50:44.887Z,5.03
2019-05-03T13:55:49.250Z,4.47
2019-05-03T14:00:54.966Z,4.30
2019-05-03T14:06:00.639Z,4.97
2019-05-03T14:11:05.491Z,4.23
2019-05-03T14:16:10.898Z,4.67
2019-05-03T14:21:17.048Z,4.33
2019-05-03T14:26:21.511Z,6.03
2019-05-03T14:31:25.863Z,7.40
2019-05-03T14:36:30.207Z,3.97
2019-05-03T14:41:34.614Z,4.57
2019-05-03T14:46:39.062Z,4.27
2019-05-03T14:51:45.408Z,4.17
2019-05-03T14:56:51.129Z,7.13
2019-05-03T15:01:57.120Z,6.10
2019-05-03T15:07:01.467Z,3.17
2019-05-03T15:12:06.015Z,7.80
2019-05-03T15:17:10.426Z,4.07
2019-05-03T15:22:14.862Z,3.93
2019-05-03T15:27:20.529Z,4.47
2019-05-03T15:32:24.916Z,5.40
2019-05-03T15:37:29.321Z,5.20
2019-05-03T15:42:34.493Z,6.23
2019-05-03T15:47:42.905Z,2.93
2019-05-03T15:52:47.259Z,4.03
2019-05-03T15:57:51.640Z,3.58
2019-05-03T16:03:07.488Z,2.87
2019-05-03T16:08:02.126Z,4.50
2019-05-03T16:13:06.883Z,4.47
2019-05-03T16:18:11.262Z,4.90
2019-05-03T16:23:15.721Z,5.10
2019-05-03T16:28:24.905Z,4.10
2019-05-03T16:33:29.357Z,5.27
2019-05-03T16:38:35.430Z,4.23
2019-05-03T16:43:40.006Z,4.97
2019-05-03T16:48:44.911Z,7.00
2019-05-03T16:53:49.391Z,3.37
2019-05-03T16:58:54.997Z,3.17
2019-05-03T17:04:01.125Z,5.40
2019-05-03T17:09:10.940Z,5.47
2019-05-03T17:14:16.937Z,5.03
2019-05-03T17:19:21.291Z,3.30
2019-05-03T17:24:25.832Z,5.70
2019-05-03T17:29:30.208Z,6.30
2019-05-03T17:34:34.808Z,3.45
2019-05-03T17:39:57.365Z,8.17
2019-05-03T17:45:01.994Z,5.03
2019-05-03T17:50:07.179Z,6.40
2019-05-03T17:55:21.953Z,5.60
2019-05-03T18:00:30.711Z,3.57
2019-05-03T18:05:44.823Z,5.37
2019-05-03T18:10:55.085Z,3.37
2019-05-03T18:15:59.485Z,5.00
2019-05-03T18:21:04.784Z,6.80
2019-05-03T18:26:09.409Z,5.33
2019-05-03T18:31:14.634Z,5.80
2019-05-03T18:36:19.073Z,4.83
2019-05-03T18:41:25.241Z,6.43
2019-05-03T18:46:31.125Z,5.67
2019-05-03T18:51:36.120Z,5.70
2019-05-03T18:56:40.502Z,5.87
2019-05-03T19:01:45.206Z,7.13
2019-05-03T19:07:01.999Z,4.40
2019-05-03T19:11:58.620Z,6.60
2019-05-03T19:17:07.339Z,4.67
2019-05-03T19:22:11.859Z,4.83
2019-05-03T19:27:16.236Z,5.40
2019-05-03T19:32:20.617Z,6.27
2019-05-03T19:37:25.340Z,6.50
2019-05-03T19:42:29.787Z,6.57
2019-05-03T19:47:35.323Z,6.73
2019-05-03T19:52:57.379Z,6.20
2019-05-03T19:58:01.765Z,5.63
2019-05-03T20:03:11.280Z,5.30
2019-05-03T20:08:24.657Z,6.20
2019-05-03T20:13:34.644Z,7.80
2019-05-03T20:18:35.660Z,5.43
2019-05-03T20:23:40.773Z,9.43
2019-05-03T20:28:45.290Z,9.90
2019-05-03T20:33:49.695Z,9.67
2019-05-03T20:38:55.034Z,6.90
2019-05-03T20:44:05.359Z,6.50
2019-05-03T20:49:12.620Z,10.70
2019-05-03T20:54:16.987Z,8.53
2019-05-03T20:59:21.346Z,5.87
2019-05-03T21:04:25.734Z,6.73
2019-05-03T21:09:30.102Z,7.87
2019-05-03T21:14:35.066Z,7.43
2019-05-03T21:19:41.257Z,8.57
2019-05-03T21:24:47.239Z,6.23
2019-05-03T21:29:54.837Z,6.62
2019-05-03T21:34:58.312Z,6.03
2019-05-03T21:40:02.665Z,7.43
2019-05-03T21:45:08.147Z,6.83
2019-05-03T21:50:14.734Z,9.43
2019-05-03T21:55:19.111Z,7.37
2019-05-03T22:00:25.422Z,5.92
2019-05-03T22:05:33.062Z,8.17
2019-05-03T22:10:37.507Z,7.80
2019-05-03T22:15:43.510Z,9.03
2019-05-03T22:20:50.634Z,6.97
2019-05-03T22:25:56.916Z,8.00
2019-05-03T22:31:01.219Z,9.23
2019-05-03T22:36:08.824Z,7.63
2019-05-03T22:41:12.526Z,8.83
2019-05-03T22:46:18.791Z,8.23
2019-05-03T22:51:24.444Z,6.70
2019-05-03T22:56:29.022Z,6.63
2019-05-03T23:01:35.250Z,6.03
2019-05-03T23:06:39.466Z,7.50
2019-05-03T23:11:44.743Z,7.60
2019-05-03T23:16:49.413Z,6.67
2019-05-03T23:21:55.502Z,5.77
2019-05-03T23:27:00.042Z,8.20
2019-05-03T23:32:04.824Z,6.20
2019-05-03T23:37:09.356Z,6.40
2019-05-03T23:42:15.503Z,9.33
2019-05-03T23:47:25.221Z,6.80
2019-05-03T23:52:32.410Z,8.17
2019-05-03T23:57:36.754Z,7.33
